Time;durP1;ratioP1;P1;durP2;ratioP2;P2;SDS_P1;SDS_P2;PMS_P1;PMS_P2;Temp;Humidity;BMP_temperature;BMP_pressure;BME280_temperature;BME280_humidity;BME280_pressure;Samples;Min_cycle;Max_cycle;Signal;HPM_P1;HPM_P2
2022/12/13 00:02:24;;;;;;;11.75;5.63;;;;;;;;;;5006367;28;88203;-61
2022/12/13 00:04:51;;;;;;;11.73;5.60;;;;;;;;;;5005340;28;88902;-62
2022/12/13 00:07:17;;;;;;;11.18;6.10;;;;;;;;;;5006191;28;88193;-61
2022/12/13 00:09:43;;;;;;;11.65;5.63;;;;;;;;;;5003691;28;87891;-61
2022/12/13 00:12:10;;;;;;;11.48;5.93;;;;;;;;;;5006029;28;88127;-61
2022/12/13 00:14:36;;;;;;;11.57;5.68;;;;;;;;;;5005825;28;88222;-61
2022/12/13 00:17:02;;;;;;;10.35;5.25;;;;;;;;;;5008830;28;87812;-61
2022/12/13 00:19:29;;;;;;;10.73;5.47;;;;;;;;;;5005819;28;88402;-61
2022/12/13 00:21:55;;;;;;;12.05;5.80;;;;;;;;;;5006073;28;87280;-61
2022/12/13 00:24:22;;;;;;;9.80;5.43;;;;;;;;;;5003559;28;88003;-61
2022/12/13 00:26:48;;;;;;;12.25;6.80;;;;;;;;;;5005548;28;88279;-61
2022/12/13 00:29:14;;;;;;;11.00;6.00;;;;;;;;;;5005351;28;88556;-61
2022/12/13 00:31:41;;;;;;;11.30;5.88;;;;;;;;;;5005628;28;88655;-61
2022/12/13 00:34:28;;;;;;;11.50;6.30;;;;;;;;;;5002799;28;88266;-61
2022/12/13 00:36:54;;;;;;;11.48;6.00;;;;;;;;;;5004268;28;87816;-61
2022/12/13 00:39:21;;;;;;;11.52;6.38;;;;;;;;;;5002174;28;88335;-61
2022/12/13 00:41:47;;;;;;;11.80;6.13;;;;;;;;;;5004909;28;89266;-61
2022/12/13 00:44:14;;;;;;;15.13;6.03;;;;;;;;;;5005886;28;88043;-61
2022/12/13 00:46:40;;;;;;;20.88;5.65;;;;;;;;;;5006288;28;87436;-61
2022/12/13 00:49:09;;;;;;;16.33;6.45;;;;;;;;;;5005932;28;87911;-61
2022/12/13 00:51:35;;;;;;;13.93;5.97;;;;;;;;;;4998840;28;87989;-62
2022/12/13 00:54:02;;;;;;;19.60;5.90;;;;;;;;;;5004876;28;89294;-62
2022/12/13 00:56:29;;;;;;;11.57;5.47;;;;;;;;;;5005404;28;87637;-61
2022/12/13 00:58:56;;;;;;;;;;;;;;;;;;5006172;28;88013;-61
2022/12/13 01:01:24;;;;;;;11.48;5.47;;;;;;;;;;5010234;28;88752;-61
2022/12/13 01:03:55;;;;;;;10.75;5.40;;;;;;;;;;5005489;28;87978;-62
2022/12/13 01:06:24;;;;;;;12.75;5.57;;;;;;;;;;5005003;28;87801;-62
2022/12/13 01:08:51;;;;;;;10.90;5.40;;;;;;;;;;5005368;28;87649;-61
2022/12/13 01:11:18;;;;;;;11.85;5.60;;;;;;;;;;5005984;28;87956;-61
2022/12/13 01:13:44;;;;;;;11.75;6.43;;;;;;;;;;5005157;28;88435;-62
2022/12/13 01:16:11;;;;;;;10.65;5.40;;;;;;;;;;5005347;28;88026;-61
2022/12/13 01:18:38;;;;;;;13.05;6.78;;;;;;;;;;5002641;28;88514;-62
2022/12/13 01:21:06;;;;;;;12.25;5.07;;;;;;;;;;5004781;28;88498;-62
2022/12/13 01:23:32;;;;;;;;;;;;;;;;;;5008144;28;92664;-61
2022/12/13 01:26:03;;;;;;;10.65;5.60;;;;;;;;;;5005951;28;118084;-61
2022/12/13 01:28:30;;;;;;;10.77;5.78;;;;;;;;;;5005442;28;87577;-61
2022/12/13 01:30:58;;;;;;;11.20;5.82;;;;;;;;;;5005274;28;87947;-62
2022/12/13 01:33:24;;;;;;;12.27;6.20;;;;;;;;;;5005068;28;88256;-60
2022/12/13 01:35:51;;;;;;;11.07;6.38;;;;;;;;;;5005319;28;87122;-61
2022/12/13 01:38:18;;;;;;;11.02;5.70;;;;;;;;;;5004667;28;88039;-62
2022/12/13 01:40:45;;;;;;;12.10;5.70;;;;;;;;;;5004747;28;88173;-60
2022/12/13 01:43:12;;;;;;;11.65;6.57;;;;;;;;;;5004169;28;88602;-61
2022/12/13 01:45:40;;;;;;;12.52;6.32;;;;;;;;;;5007664;28;88660;-61
2022/12/13 01:48:10;;;;;;;13.02;5.88;;;;;;;;;;5004909;28;87633;-62
2022/12/13 01:50:40;;;;;;;11.23;5.70;;;;;;;;;;5004476;28;89010;-61
2022/12/13 01:53:07;;;;;;;11.05;5.78;;;;;;;;;;5004847;28;88140;-61
2022/12/13 01:55:35;;;;;;;12.75;6.53;;;;;;;;;;5002373;28;88127;-61
2022/12/13 01:58:07;;;;;;;11.68;5.63;;;;;;;;;;5004824;28;88969;-61
2022/12/13 02:00:34;;;;;;;11.80;5.30;;;;;;;;;;5004867;28;87035;-61
2022/12/13 02:03:01;;;;;;;13.77;5.88;;;;;;;;;;4999366;28;87922;-61
2022/12/13 02:05:50;;;;;;;11.77;6.53;;;;;;;;;;5005945;28;88011;-61
2022/12/13 02:08:18;;;;;;;11.48;6.30;;;;;;;;;;5004494;28;88553;-61
2022/12/13 02:10:45;;;;;;;11.02;5.57;;;;;;;;;;5004467;28;87902;-61
2022/12/13 02:13:11;;;;;;;12.00;5.95;;;;;;;;;;5004508;28;88436;-61
2022/12/13 02:15:53;;;;;;;10.60;5.82;;;;;;;;;;5004278;28;87965;-61
2022/12/13 02:18:34;;;;;;;11.60;6.40;;;;;;;;;;5004915;28;87873;-61
2022/12/13 02:21:09;;;;;;;12.02;6.15;;;;;;;;;;5004180;28;89307;-61
2022/12/13 02:23:35;;;;;;;13.05;6.30;;;;;;;;;;5004265;28;88107;-61
2022/12/13 02:26:13;;;;;;;10.82;5.45;;;;;;;;;;5004729;28;87562;-61
2022/12/13 02:28:42;;;;;;;11.73;5.88;;;;;;;;;;5007461;28;88604;-61
2022/12/13 02:31:12;;;;;;;12.35;6.57;;;;;;;;;;5004155;28;88626;-61
2022/12/13 02:33:44;;;;;;;13.68;6.93;;;;;;;;;;5003876;28;88977;-61
2022/12/13 02:36:28;;;;;;;12.80;6.68;;;;;;;;;;5004399;28;87773;-61
2022/12/13 02:39:07;;;;;;;12.15;6.15;;;;;;;;;;5004040;28;88045;-61
2022/12/13 02:41:36;;;;;;;11.80;6.07;;;;;;;;;;5004206;28;88310;-61
2022/12/13 02:44:12;;;;;;;12.65;6.45;;;;;;;;;;4993549;28;88269;-61
2022/12/13 02:46:52;;;;;;;12.25;5.65;;;;;;;;;;4991538;28;87964;-61
2022/12/13 02:49:18;;;;;;;12.07;6.47;;;;;;;;;;5005411;28;88077;-61
2022/12/13 02:51:45;;;;;;;10.95;5.45;;;;;;;;;;5010926;28;86930;-61
2022/12/13 02:54:12;;;;;;;11.65;5.60;;;;;;;;;;5007516;28;88232;-61
2022/12/13 02:56:38;;;;;;;12.02;5.78;;;;;;;;;;5007422;28;87936;-61
2022/12/13 02:59:10;;;;;;;10.65;5.85;;;;;;;;;;5005174;28;89003;-60
2022/12/13 03:01:56;;;;;;;13.75;6.55;;;;;;;;;;5006262;28;88239;-64
2022/12/13 03:06:28;;;;;;;12.90;6.03;;;;;;;;;;5006601;28;87915;-61
2022/12/13 03:07:32;;;;;;;12.25;6.20;;;;;;;;;;5007626;28;88025;-62
2022/12/13 03:10:04;;;;;;;11.68;6.25;;;;;;;;;;5007341;28;88202;-61
2022/12/13 03:15:34;;;;;;;12.10;6.38;;;;;;;;;;5010095;28;88338;-62
2022/12/13 03:18:14;;;;;;;12.05;5.78;;;;;;;;;;5007888;28;88279;-61
2022/12/13 03:20:59;;;;;;;13.48;6.07;;;;;;;;;;4994846;28;88029;-61
2022/12/13 03:23:26;;;;;;;12.23;5.97;;;;;;;;;;5006933;28;88972;-61
2022/12/13 03:25:58;;;;;;;11.57;6.30;;;;;;;;;;4998449;28;88932;-61
2022/12/13 03:28:24;;;;;;;11.82;5.60;;;;;;;;;;5002213;28;89086;-61
2022/12/13 03:30:51;;;;;;;12.27;6.15;;;;;;;;;;5006767;28;88354;-61
2022/12/13 03:33:17;;;;;;;11.65;6.40;;;;;;;;;;5007184;28;87935;-61
2022/12/13 03:35:44;;;;;;;11.13;5.55;;;;;;;;;;5006574;28;88112;-61
2022/12/13 03:38:15;;;;;;;12.38;5.85;;;;;;;;;;5009946;28;87746;-61
2022/12/13 03:40:59;;;;;;;11.70;5.80;;;;;;;;;;5006637;28;88408;-61
2022/12/13 03:43:26;;;;;;;11.60;5.80;;;;;;;;;;5007539;28;87386;-61
2022/12/13 03:45:53;;;;;;;13.80;6.40;;;;;;;;;;5006265;28;87717;-61
2022/12/13 03:48:19;;;;;;;11.85;5.82;;;;;;;;;;5006787;28;88585;-65
2022/12/13 03:50:49;;;;;;;12.13;5.70;;;;;;;;;;5006049;28;88853;-61
2022/12/13 03:53:15;;;;;;;12.48;5.97;;;;;;;;;;5006636;28;87638;-61
2022/12/13 03:55:59;;;;;;;11.20;5.72;;;;;;;;;;5006170;28;88012;-61
2022/12/13 03:58:26;;;;;;;12.68;6.50;;;;;;;;;;5006741;28;88567;-61
2022/12/13 04:01:02;;;;;;;14.52;5.88;;;;;;;;;;5007888;28;87873;-61
2022/12/13 04:03:28;;;;;;;11.43;5.50;;;;;;;;;;5006271;28;89189;-61
2022/12/13 04:05:55;;;;;;;11.18;5.43;;;;;;;;;;5006458;28;87916;-61
2022/12/13 04:08:21;;;;;;;12.38;6.03;;;;;;;;;;5004210;28;88068;-61
2022/12/13 04:10:48;;;;;;;10.65;6.18;;;;;;;;;;5006208;28;88619;-61
2022/12/13 04:13:32;;;;;;;13.32;6.35;;;;;;;;;;5006340;28;87926;-61
2022/12/13 04:15:59;;;;;;;12.85;6.72;;;;;;;;;;5006192;28;88396;-61
2022/12/13 04:18:26;;;;;;;12.02;6.03;;;;;;;;;;5006294;28;88114;-61
2022/12/13 04:20:52;;;;;;;12.60;6.13;;;;;;;;;;5008894;28;87713;-61
2022/12/13 04:23:19;;;;;;;11.85;6.05;;;;;;;;;;5003222;28;88838;-61
2022/12/13 04:25:45;;;;;;;11.70;5.65;;;;;;;;;;5005742;28;87938;-61
2022/12/13 04:28:11;;;;;;;10.52;5.55;;;;;;;;;;5006075;28;87873;-61
2022/12/13 04:30:47;;;;;;;11.82;5.63;;;;;;;;;;5005646;28;88748;-61
2022/12/13 04:33:19;;;;;;;11.73;6.15;;;;;;;;;;5006804;28;87007;-61
2022/12/13 04:35:46;;;;;;;11.27;6.68;;;;;;;;;;5001592;28;87921;-61
2022/12/13 04:38:13;;;;;;;13.57;6.10;;;;;;;;;;5000295;28;88362;-61
2022/12/13 04:40:39;;;;;;;10.70;6.28;;;;;;;;;;5005363;28;88929;-61
2022/12/13 04:43:06;;;;;;;12.35;5.78;;;;;;;;;;5008858;28;89022;-61
2022/12/13 04:45:32;;;;;;;12.05;6.47;;;;;;;;;;5005277;28;87821;-61
2022/12/13 04:47:59;;;;;;;11.02;6.22;;;;;;;;;;5006087;28;88143;-65
2022/12/13 04:50:25;;;;;;;12.50;6.13;;;;;;;;;;5004382;28;88415;-61
2022/12/13 04:52:51;;;;;;;13.23;5.80;;;;;;;;;;5006131;28;88106;-61
2022/12/13 04:55:18;;;;;;;12.77;6.00;;;;;;;;;;5004008;28;89549;-61
2022/12/13 04:57:44;;;;;;;12.93;6.63;;;;;;;;;;5006552;28;87720;-61
2022/12/13 05:00:12;;;;;;;10.60;5.45;;;;;;;;;;5005441;28;88001;-61
2022/12/13 05:02:40;;;;;;;12.27;5.47;;;;;;;;;;5005795;28;88942;-61
2022/12/13 05:05:07;;;;;;;12.23;5.97;;;;;;;;;;5007492;28;88899;-61
2022/12/13 05:07:33;;;;;;;11.13;5.75;;;;;;;;;;5006031;28;88605;-61
2022/12/13 05:10:07;;;;;;;;;;;;;;;;;;4996615;28;89041;-61
2022/12/13 05:12:34;;;;;;;11.35;5.60;;;;;;;;;;5004067;28;115656;-61
2022/12/13 05:15:00;;;;;;;11.30;5.40;;;;;;;;;;5005191;28;87883;-61
2022/12/13 05:17:26;;;;;;;12.15;6.40;;;;;;;;;;5005757;28;87619;-61
2022/12/13 05:19:53;;;;;;;13.30;6.45;;;;;;;;;;5002431;28;87894;-61
2022/12/13 05:22:19;;;;;;;11.93;6.25;;;;;;;;;;5005951;28;88170;-61
2022/12/13 05:24:46;;;;;;;12.77;6.05;;;;;;;;;;5003681;28;90073;-61
2022/12/13 05:27:13;;;;;;;12.07;6.35;;;;;;;;;;5007932;28;88167;-61
2022/12/13 05:29:55;;;;;;;12.40;6.05;;;;;;;;;;5004263;28;89028;-62
2022/12/13 05:32:37;;;;;;;11.73;5.65;;;;;;;;;;5004174;28;87641;-61
2022/12/13 05:35:10;;;;;;;12.40;6.22;;;;;;;;;;5005141;28;87587;-61
2022/12/13 05:37:36;;;;;;;12.40;6.60;;;;;;;;;;5005693;28;88391;-61
2022/12/13 05:40:02;;;;;;;15.10;6.22;;;;;;;;;;5004517;28;87752;-61
2022/12/13 05:42:29;;;;;;;11.98;6.18;;;;;;;;;;5005104;28;87970;-61
2022/12/13 05:44:55;;;;;;;12.02;6.18;;;;;;;;;;5004796;28;88232;-61
2022/12/13 05:47:21;;;;;;;12.25;6.45;;;;;;;;;;4975434;28;89338;-61
2022/12/13 05:49:48;;;;;;;12.63;6.10;;;;;;;;;;4999446;28;87734;-61
2022/12/13 05:52:18;;;;;;;11.85;5.88;;;;;;;;;;5004846;28;87586;-60
2022/12/13 05:54:44;;;;;;;13.10;5.95;;;;;;;;;;5003590;28;88567;-61
2022/12/13 05:57:11;;;;;;;12.85;5.90;;;;;;;;;;5005201;28;88258;-61
2022/12/13 05:59:37;;;;;;;12.90;6.00;;;;;;;;;;5004501;28;88128;-61
2022/12/13 06:02:03;;;;;;;12.45;6.40;;;;;;;;;;4999576;28;88293;-61
2022/12/13 06:04:30;;;;;;;13.05;5.90;;;;;;;;;;5004328;28;88134;-61
2022/12/13 06:06:57;;;;;;;12.38;6.88;;;;;;;;;;5004552;28;87895;-61
2022/12/13 06:09:23;;;;;;;12.00;5.70;;;;;;;;;;5005061;28;87944;-61
2022/12/13 06:11:49;;;;;;;13.00;6.22;;;;;;;;;;5006647;28;90546;-61
2022/12/13 06:14:16;;;;;;;12.10;6.07;;;;;;;;;;5000106;28;87862;-61
2022/12/13 06:16:48;;;;;;;12.25;5.95;;;;;;;;;;4998794;28;89153;-61
2022/12/13 06:19:14;;;;;;;13.07;6.80;;;;;;;;;;5003655;28;88565;-61
2022/12/13 06:21:41;;;;;;;12.38;6.38;;;;;;;;;;5004134;28;89685;-61
2022/12/13 06:24:15;;;;;;;12.57;6.78;;;;;;;;;;5006257;28;88519;-59
2022/12/13 06:26:42;;;;;;;11.75;6.32;;;;;;;;;;5006603;28;88184;-61
2022/12/13 06:29:12;;;;;;;13.40;6.88;;;;;;;;;;5006389;28;88413;-62
2022/12/13 06:31:54;;;;;;;12.43;6.25;;;;;;;;;;5010962;28;88208;-60
2022/12/13 06:34:32;;;;;;;12.55;6.60;;;;;;;;;;5006466;28;88022;-61
2022/12/13 06:37:00;;;;;;;11.73;6.32;;;;;;;;;;5008296;28;87466;-60
2022/12/13 06:39:26;;;;;;;13.95;7.10;;;;;;;;;;5007810;28;87736;-62
2022/12/13 06:41:59;;;;;;;14.50;7.10;;;;;;;;;;5007810;28;87957;-64
2022/12/13 06:44:25;;;;;;;13.15;6.80;;;;;;;;;;5005599;28;91685;-62
2022/12/13 06:46:51;;;;;;;14.00;7.03;;;;;;;;;;5007419;28;87768;-62
2022/12/13 06:49:38;;;;;;;13.77;6.85;;;;;;;;;;5006205;28;90201;-62
2022/12/13 06:52:04;;;;;;;13.88;7.40;;;;;;;;;;5007465;28;88094;-62
2022/12/13 06:54:31;;;;;;;14.77;7.07;;;;;;;;;;5010086;28;88296;-61
2022/12/13 06:56:58;;;;;;;12.27;6.35;;;;;;;;;;4999109;28;88638;-63
2022/12/13 06:59:24;;;;;;;15.00;7.05;;;;;;;;;;5007646;28;89213;-62
2022/12/13 07:01:51;;;;;;;14.27;7.60;;;;;;;;;;5007907;28;87942;-61
2022/12/13 07:04:17;;;;;;;12.32;6.85;;;;;;;;;;5007202;28;88608;-61
2022/12/13 07:06:56;;;;;;;12.50;6.60;;;;;;;;;;5007245;28;87728;-61
2022/12/13 07:09:31;;;;;;;11.80;6.15;;;;;;;;;;5006479;28;88595;-61
2022/12/13 07:11:58;;;;;;;13.43;7.03;;;;;;;;;;5006689;28;88229;-62
2022/12/13 07:14:24;;;;;;;12.00;6.05;;;;;;;;;;5007043;28;87670;-61
2022/12/13 07:16:50;;;;;;;12.82;7.03;;;;;;;;;;5010130;28;88021;-61
2022/12/13 07:19:17;;;;;;;14.20;6.95;;;;;;;;;;5006730;28;87640;-61
2022/12/13 07:21:49;;;;;;;13.90;6.45;;;;;;;;;;5007065;28;88183;-61
2022/12/13 07:24:16;;;;;;;11.68;6.40;;;;;;;;;;5001650;28;92584;-61
2022/12/13 07:26:42;;;;;;;15.00;6.72;;;;;;;;;;5002217;28;91467;-61
2022/12/13 07:29:08;;;;;;;11.73;6.32;;;;;;;;;;5004168;28;92350;-61
2022/12/13 07:31:37;;;;;;;11.98;6.45;;;;;;;;;;5003700;28;92621;-61
2022/12/13 07:34:04;;;;;;;13.00;6.25;;;;;;;;;;5001938;28;94541;-61
2022/12/13 07:36:30;;;;;;;13.88;7.50;;;;;;;;;;5003356;28;95763;-63
2022/12/13 07:38:57;;;;;;;16.13;7.38;;;;;;;;;;5006038;28;92528;-60
2022/12/13 07:41:24;;;;;;;14.15;7.07;;;;;;;;;;5003138;28;92779;-60
2022/12/13 07:43:53;;;;;;;13.57;6.70;;;;;;;;;;5002137;28;92207;-60
2022/12/13 07:46:20;;;;;;;13.60;6.95;;;;;;;;;;4997460;28;95002;-61
2022/12/13 07:48:59;;;;;;;13.98;6.15;;;;;;;;;;5003253;28;92631;-61
2022/12/13 07:51:27;;;;;;;14.13;7.00;;;;;;;;;;5002596;28;92268;-61
2022/12/13 07:53:53;;;;;;;13.50;6.22;;;;;;;;;;5002497;28;92344;-61
2022/12/13 07:56:20;;;;;;;14.02;6.95;;;;;;;;;;5001749;28;93407;-61
2022/12/13 07:58:46;;;;;;;13.68;6.40;;;;;;;;;;5001223;28;94954;-63
2022/12/13 08:01:13;;;;;;;13.85;6.45;;;;;;;;;;5005238;28;92632;-60
2022/12/13 08:03:39;;;;;;;13.18;6.82;;;;;;;;;;5002181;28;93651;-60
2022/12/13 08:06:07;;;;;;;12.57;6.03;;;;;;;;;;5001946;28;92064;-60
2022/12/13 08:08:34;;;;;;;12.48;6.82;;;;;;;;;;4999654;28;92588;-60
2022/12/13 08:11:05;;;;;;;14.38;7.30;;;;;;;;;;5002188;28;92510;-62
2022/12/13 08:13:31;;;;;;;12.43;6.40;;;;;;;;;;5001965;28;92024;-61
2022/12/13 08:15:59;;;;;;;12.32;7.03;;;;;;;;;;5002375;28;91594;-61
2022/12/13 08:18:26;;;;;;;12.88;7.05;;;;;;;;;;5002315;28;92677;-62
2022/12/13 08:20:56;;;;;;;13.00;6.68;;;;;;;;;;5001118;28;92342;-61
2022/12/13 08:23:23;;;;;;;13.35;6.85;;;;;;;;;;5004420;28;94765;-61
2022/12/13 08:25:50;;;;;;;14.02;6.50;;;;;;;;;;5002364;28;92192;-61
2022/12/13 08:28:17;;;;;;;12.35;6.35;;;;;;;;;;5002768;28;92886;-60
2022/12/13 08:30:43;;;;;;;12.73;6.78;;;;;;;;;;5001700;28;93165;-61
2022/12/13 08:33:10;;;;;;;14.90;6.55;;;;;;;;;;5002554;28;92046;-61
2022/12/13 08:35:36;;;;;;;13.90;6.63;;;;;;;;;;4991594;28;92290;-61
2022/12/13 08:38:02;;;;;;;14.82;7.28;;;;;;;;;;5001632;28;93590;-61
2022/12/13 08:40:29;;;;;;;15.82;6.72;;;;;;;;;;5002199;28;91589;-61
2022/12/13 08:42:55;;;;;;;13.00;6.57;;;;;;;;;;5005113;28;92113;-61
2022/12/13 08:45:23;;;;;;;12.48;7.07;;;;;;;;;;5001726;28;92579;-61
2022/12/13 08:47:49;;;;;;;14.77;7.32;;;;;;;;;;5000110;28;94423;-62
2022/12/13 08:50:15;;;;;;;14.15;7.45;;;;;;;;;;4997684;28;92733;-62
2022/12/13 08:52:43;;;;;;;14.10;6.93;;;;;;;;;;5000653;28;92259;-62
2022/12/13 08:55:14;;;;;;;14.13;6.95;;;;;;;;;;5000526;28;92677;-62
2022/12/13 08:57:41;;;;;;;15.43;7.60;;;;;;;;;;5001824;28;92722;-62
2022/12/13 09:00:10;;;;;;;15.05;7.43;;;;;;;;;;4999337;28;92260;-62
2022/12/13 09:02:37;;;;;;;17.33;8.38;;;;;;;;;;4999845;28;93547;-62
2022/12/13 09:05:06;;;;;;;15.10;7.13;;;;;;;;;;5004409;28;91994;-66
2022/12/13 09:07:34;;;;;;;14.15;7.32;;;;;;;;;;5002147;28;92411;-62
2022/12/13 09:10:01;;;;;;;15.07;7.30;;;;;;;;;;4999942;28;92406;-62
2022/12/13 09:12:47;;;;;;;13.60;6.65;;;;;;;;;;4994120;28;94628;-62
2022/12/13 09:15:14;;;;;;;15.48;7.90;;;;;;;;;;5000407;28;95674;-62
2022/12/13 09:17:48;;;;;;;15.75;8.10;;;;;;;;;;4997214;28;92688;-61
2022/12/13 09:20:18;;;;;;;14.45;7.68;;;;;;;;;;5000694;28;92783;-61
2022/12/13 09:22:55;;;;;;;17.60;8.25;;;;;;;;;;4999785;28;92321;-62
2022/12/13 09:25:27;;;;;;;18.13;9.25;;;;;;;;;;5000514;28;92677;-62
2022/12/13 09:28:03;;;;;;;19.50;9.93;;;;;;;;;;5004834;28;93675;-62
2022/12/13 09:30:29;;;;;;;21.70;10.63;;;;;;;;;;4998829;28;92034;-65
2022/12/13 09:32:56;;;;;;;22.20;11.18;;;;;;;;;;5000407;28;92776;-63
2022/12/13 09:35:23;;;;;;;27.23;13.20;;;;;;;;;;4999860;28;92331;-62
2022/12/13 09:37:50;;;;;;;28.15;14.07;;;;;;;;;;4998773;28;95212;-62
2022/12/13 09:40:21;;;;;;;28.77;14.13;;;;;;;;;;4999181;28;92273;-61
2022/12/13 09:42:52;;;;;;;28.90;14.85;;;;;;;;;;4998199;28;93481;-62
2022/12/13 09:45:42;;;;;;;30.90;15.18;;;;;;;;;;4995645;28;94853;-62
2022/12/13 09:48:11;;;;;;;32.58;15.23;;;;;;;;;;5000583;28;92355;-62
2022/12/13 09:50:38;;;;;;;33.08;15.90;;;;;;;;;;5002885;28;92344;-62
2022/12/13 09:53:20;;;;;;;35.97;17.13;;;;;;;;;;4998852;28;92512;-62
2022/12/13 09:55:47;;;;;;;;;;;;;;;;;;4999520;28;92279;-61
2022/12/13 09:58:17;;;;;;;31.35;15.65;;;;;;;;;;5000638;28;122387;-61
2022/12/13 10:00:45;;;;;;;34.30;16.05;;;;;;;;;;4999445;28;92587;-61
2022/12/13 10:03:13;;;;;;;36.88;16.70;;;;;;;;;;4998188;28;94477;-60
2022/12/13 10:05:42;;;;;;;33.33;15.80;;;;;;;;;;4999360;28;92943;-61
2022/12/13 10:08:31;;;;;;;32.83;15.73;;;;;;;;;;4994412;28;92525;-62
2022/12/13 10:10:57;;;;;;;30.67;16.00;;;;;;;;;;4998694;28;92299;-61
2022/12/13 10:13:24;;;;;;;32.78;16.17;;;;;;;;;;5002404;28;92826;-61
2022/12/13 10:15:53;;;;;;;27.67;14.27;;;;;;;;;;4998995;28;93132;-62
2022/12/13 10:18:25;;;;;;;26.17;13.35;;;;;;;;;;4999920;28;93563;-61
2022/12/13 10:20:52;;;;;;;26.50;13.40;;;;;;;;;;5000200;28;91295;-61
2022/12/13 10:23:19;;;;;;;28.48;13.50;;;;;;;;;;4999421;28;92579;-61
2022/12/13 10:26:10;;;;;;;26.02;12.80;;;;;;;;;;4999153;28;92465;-61
2022/12/13 10:28:59;;;;;;;25.85;13.02;;;;;;;;;;4994183;28;95119;-61
2022/12/13 10:31:26;;;;;;;26.00;13.32;;;;;;;;;;4999934;28;94777;-61
2022/12/13 10:33:54;;;;;;;25.80;12.82;;;;;;;;;;4999745;28;92489;-61
2022/12/13 10:36:34;;;;;;;22.67;11.95;;;;;;;;;;5001945;28;93606;-61
2022/12/13 10:39:01;;;;;;;23.60;12.18;;;;;;;;;;4999366;28;92672;-61
2022/12/13 10:41:33;;;;;;;22.40;11.90;;;;;;;;;;4999304;28;92201;-61
2022/12/13 10:44:12;;;;;;;22.63;11.80;;;;;;;;;;4996762;28;92301;-61
2022/12/13 10:46:39;;;;;;;25.77;11.60;;;;;;;;;;4999943;28;92724;-61
2022/12/13 10:49:15;;;;;;;21.73;11.05;;;;;;;;;;4999548;28;92509;-62
2022/12/13 10:51:41;;;;;;;24.08;11.38;;;;;;;;;;4998435;28;92558;-67
2022/12/13 10:54:14;;;;;;;22.13;11.35;;;;;;;;;;4997740;28;94921;-62
2022/12/13 10:56:45;;;;;;;20.95;10.68;;;;;;;;;;5002164;28;92369;-62
2022/12/13 10:59:19;;;;;;;22.60;10.48;;;;;;;;;;4999222;28;92581;-62
2022/12/13 11:01:46;;;;;;;22.60;11.48;;;;;;;;;;4998623;28;92682;-61
2022/12/13 11:04:21;;;;;;;21.42;10.55;;;;;;;;;;4999075;28;92600;-62
2022/12/13 11:06:53;;;;;;;20.58;10.07;;;;;;;;;;4997407;28;92476;-62
2022/12/13 11:09:30;;;;;;;18.98;9.30;;;;;;;;;;4997443;28;92178;-62
2022/12/13 11:12:15;;;;;;;18.13;9.43;;;;;;;;;;5002803;28;92268;-62
2022/12/13 11:14:51;;;;;;;18.05;9.25;;;;;;;;;;5002845;28;93801;-61
2022/12/13 11:17:20;;;;;;;17.73;9.32;;;;;;;;;;5003149;28;91970;-61
2022/12/13 11:19:49;;;;;;;19.75;9.65;;;;;;;;;;5004229;28;94858;-61
2022/12/13 11:22:19;;;;;;;18.50;9.45;;;;;;;;;;5002971;28;92025;-62
2022/12/13 11:24:54;;;;;;;20.00;9.45;;;;;;;;;;5000976;28;92711;-61
2022/12/13 11:27:35;;;;;;;18.15;9.63;;;;;;;;;;4998292;28;93194;-62
2022/12/13 11:30:08;;;;;;;18.15;9.77;;;;;;;;;;5001704;28;92300;-61
2022/12/13 11:32:57;;;;;;;18.30;8.95;;;;;;;;;;5002443;28;92407;-62
2022/12/13 11:35:51;;;;;;;18.02;8.52;;;;;;;;;;5001826;28;92348;-61
2022/12/13 11:38:24;;;;;;;17.08;9.02;;;;;;;;;;4990412;28;91984;-62
2022/12/13 11:40:59;;;;;;;17.58;8.93;;;;;;;;;;5001924;28;92085;-61
2022/12/13 11:43:58;;;;;;;17.02;8.23;;;;;;;;;;5005408;28;93670;-61
2022/12/13 11:46:33;;;;;;;16.52;8.38;;;;;;;;;;4975473;28;95223;-62
2022/12/13 11:49:08;;;;;;;15.65;8.23;;;;;;;;;;5000609;28;95113;-62
2022/12/13 11:51:39;;;;;;;17.60;8.15;;;;;;;;;;4999328;28;92094;-63
2022/12/13 11:54:09;;;;;;;14.38;7.65;;;;;;;;;;5001887;28;92303;-62
2022/12/13 11:56:38;;;;;;;14.48;7.43;;;;;;;;;;5001435;28;92564;-62
2022/12/13 11:59:20;;;;;;;14.77;7.75;;;;;;;;;;5001904;28;92309;-62
2022/12/13 12:01:55;;;;;;;14.27;7.43;;;;;;;;;;5001237;28;93518;-62
2022/12/13 12:04:34;;;;;;;15.88;7.68;;;;;;;;;;5000907;28;92303;-62
2022/12/13 12:07:09;;;;;;;14.75;7.35;;;;;;;;;;5004928;28;92474;-62
2022/12/13 12:09:57;;;;;;;14.50;7.22;;;;;;;;;;4998424;28;92522;-63
2022/12/13 12:12:24;;;;;;;14.98;7.72;;;;;;;;;;5000709;28;96107;-61
2022/12/13 12:15:20;;;;;;;15.00;7.47;;;;;;;;;;5001550;28;94133;-62
2022/12/13 12:17:53;;;;;;;12.93;7.30;;;;;;;;;;4996252;28;92772;-61
2022/12/13 12:20:23;;;;;;;14.05;7.28;;;;;;;;;;5001393;28;92635;-61
2022/12/13 12:22:56;;;;;;;14.43;7.03;;;;;;;;;;5000521;28;92593;-61
2022/12/13 12:25:35;;;;;;;13.93;7.00;;;;;;;;;;4997763;28;92779;-61
2022/12/13 12:28:26;;;;;;;13.48;6.95;;;;;;;;;;5000689;28;92703;-62
2022/12/13 12:31:18;;;;;;;13.40;6.90;;;;;;;;;;5005766;28;92882;-63
2022/12/13 12:33:54;;;;;;;15.80;7.10;;;;;;;;;;5001274;28;92027;-62
2022/12/13 12:36:21;;;;;;;13.20;6.60;;;;;;;;;;5002380;28;92864;-61
2022/12/13 12:39:02;;;;;;;12.70;6.55;;;;;;;;;;5000434;28;94908;-61
2022/12/13 12:41:28;;;;;;;13.63;6.53;;;;;;;;;;5001971;28;92831;-61
2022/12/13 12:44:02;;;;;;;13.00;6.78;;;;;;;;;;5002352;28;92710;-61
2022/12/13 12:46:32;;;;;;;14.40;6.55;;;;;;;;;;5000636;28;93661;-61
2022/12/13 12:49:28;;;;;;;13.98;6.55;;;;;;;;;;5002442;28;92101;-61
2022/12/13 12:52:13;;;;;;;13.68;6.15;;;;;;;;;;5003368;28;92339;-62
2022/12/13 12:54:46;;;;;;;12.02;6.60;;;;;;;;;;4999260;28;92526;-62
2022/12/13 12:57:29;;;;;;;13.38;6.13;;;;;;;;;;5002283;28;93213;-62
2022/12/13 13:00:02;;;;;;;13.10;6.82;;;;;;;;;;5001945;28;92952;-62
2022/12/13 13:02:29;;;;;;;14.18;6.30;;;;;;;;;;4999633;28;92612;-61
2022/12/13 13:04:58;;;;;;;12.13;6.18;;;;;;;;;;5000790;28;94384;-62
2022/12/13 13:07:30;;;;;;;12.82;6.22;;;;;;;;;;4998867;28;92705;-62
2022/12/13 13:10:05;;;;;;;11.13;5.70;;;;;;;;;;5001882;28;92442;-64
2022/12/13 13:12:51;;;;;;;15.00;6.45;;;;;;;;;;5001207;28;92227;-62
2022/12/13 13:15:37;;;;;;;13.65;6.72;;;;;;;;;;5004341;28;92629;-63
2022/12/13 13:18:24;;;;;;;13.27;5.95;;;;;;;;;;4998430;28;92386;-61
2022/12/13 13:21:10;;;;;;;13.02;6.53;;;;;;;;;;5001706;28;93345;-62
2022/12/13 13:23:36;;;;;;;13.18;6.00;;;;;;;;;;5001627;28;91464;-65
2022/12/13 13:26:07;;;;;;;13.85;5.75;;;;;;;;;;5001430;28;92497;-66
2022/12/13 13:28:53;;;;;;;13.27;5.78;;;;;;;;;;4998192;28;92701;-63
2022/12/13 13:31:19;;;;;;;13.00;5.88;;;;;;;;;;4999239;28;94687;-63
2022/12/13 13:33:49;;;;;;;12.77;5.78;;;;;;;;;;4999965;28;95706;-64
2022/12/13 13:36:45;;;;;;;12.50;6.20;;;;;;;;;;5000851;28;92880;-64
2022/12/13 13:39:18;;;;;;;11.00;5.50;;;;;;;;;;4985779;28;92616;-63
2022/12/13 13:41:50;;;;;;;13.85;5.93;;;;;;;;;;4999703;28;92528;-63
2022/12/13 13:44:33;;;;;;;11.55;5.80;;;;;;;;;;5000896;28;92019;-63
2022/12/13 13:47:16;;;;;;;11.60;5.65;;;;;;;;;;5001316;28;92229;-64
2022/12/13 13:50:01;;;;;;;10.80;5.65;;;;;;;;;;5001555;28;91828;-63
2022/12/13 13:52:38;;;;;;;11.15;5.45;;;;;;;;;;5001367;28;92678;-63
2022/12/13 13:55:13;;;;;;;11.57;5.97;;;;;;;;;;4987719;28;92627;-64
2022/12/13 13:57:51;;;;;;;12.50;5.43;;;;;;;;;;4998242;28;94700;-63
2022/12/13 14:00:38;;;;;;;12.27;5.72;;;;;;;;;;5000355;28;92281;-63
2022/12/13 14:03:24;;;;;;;10.93;5.53;;;;;;;;;;5004456;28;92237;-63
2022/12/13 14:06:18;;;;;;;11.45;5.60;;;;;;;;;;5000949;28;92236;-64
2022/12/13 14:08:50;;;;;;;12.00;5.47;;;;;;;;;;5000403;28;92538;-64
2022/12/13 14:11:16;;;;;;;11.13;5.13;;;;;;;;;;5000361;28;92788;-64
2022/12/13 14:13:43;;;;;;;11.32;5.68;;;;;;;;;;5000620;28;92208;-64
2022/12/13 14:16:23;;;;;;;11.75;5.80;;;;;;;;;;5000686;28;92728;-64
2022/12/13 14:18:57;;;;;;;13.30;5.85;;;;;;;;;;4999950;28;93608;-64
2022/12/13 14:21:35;;;;;;;11.02;5.15;;;;;;;;;;5000559;28;92244;-64
2022/12/13 14:24:11;;;;;;;10.32;4.88;;;;;;;;;;4998622;28;94450;-63
2022/12/13 14:26:45;;;;;;;12.70;5.53;;;;;;;;;;5001938;28;92644;-69
2022/12/13 14:29:22;;;;;;;12.57;5.38;;;;;;;;;;4998664;28;92300;-72
2022/12/13 14:31:48;;;;;;;13.63;5.50;;;;;;;;;;4998993;28;92831;-69
2022/12/13 14:34:26;;;;;;;11.52;5.03;;;;;;;;;;5000268;28;93851;-67
2022/12/13 14:36:55;;;;;;;11.43;5.50;;;;;;;;;;4999965;28;92086;-68
2022/12/13 14:39:22;;;;;;;10.93;5.63;;;;;;;;;;5000019;28;92551;-67
2022/12/13 14:41:52;;;;;;;10.20;5.00;;;;;;;;;;4999052;28;91426;-68
2022/12/13 14:44:30;;;;;;;11.32;5.10;;;;;;;;;;5001695;28;92139;-68
2022/12/13 14:47:00;;;;;;;11.02;5.28;;;;;;;;;;5000049;28;92627;-67
2022/12/13 14:49:28;;;;;;;10.63;4.90;;;;;;;;;;5004983;28;94900;-68
2022/12/13 14:52:00;;;;;;;9.50;4.68;;;;;;;;;;5003098;28;92630;-66
2022/12/13 14:54:30;;;;;;;11.25;5.18;;;;;;;;;;5002915;28;92156;-68
2022/12/13 14:57:00;;;;;;;10.10;4.90;;;;;;;;;;5003560;28;92668;-70
2022/12/13 14:59:27;;;;;;;10.07;5.18;;;;;;;;;;5003150;28;93037;-70